createdAt,value
2022-09-17T00:01:23.357Z,16.77
2022-09-17T00:04:00.607Z,16.72
2022-09-17T00:06:28.178Z,16.72
2022-09-17T00:08:55.428Z,16.77
2022-09-17T00:11:30.653Z,16.77
2022-09-17T00:14:00.858Z,16.85
2022-09-17T00:16:37.170Z,16.86
2022-09-17T00:19:06.691Z,16.97
2022-09-17T00:21:33.831Z,16.81
2022-09-17T00:24:03.744Z,16.80
2022-09-17T00:26:33.226Z,16.83
2022-09-17T00:29:01.342Z,16.79
2022-09-17T00:31:29.548Z,16.82
2022-09-17T00:33:58.046Z,16.90
2022-09-17T00:36:25.069Z,16.91
2022-09-17T00:38:54.458Z,16.90
2022-09-17T00:41:23.497Z,16.92
2022-09-17T00:43:53.353Z,16.94
2022-09-17T00:46:40.825Z,16.97
2022-09-17T00:49:28.970Z,16.89
2022-09-17T00:52:12.672Z,16.82
2022-09-17T00:54:45.116Z,16.82
2022-09-17T00:57:12.718Z,16.79
2022-09-17T00:59:39.722Z,16.74
2022-09-17T01:02:07.382Z,16.76
2022-09-17T01:04:34.326Z,16.72
2022-09-17T01:07:07.101Z,16.66
2022-09-17T01:10:00.185Z,16.61
2022-09-17T01:13:04.805Z,16.63
2022-09-17T01:15:57.403Z,16.68
2022-09-17T01:18:47.817Z,16.63
2022-09-17T01:21:53.605Z,16.59
2022-09-17T01:24:29.835Z,16.63
2022-09-17T01:27:15.004Z,16.56
2022-09-17T01:29:57.259Z,16.55
2022-09-17T01:32:39.137Z,16.58
2022-09-17T01:35:22.881Z,16.68
2022-09-17T01:38:16.534Z,16.67
2022-09-17T01:41:09.699Z,16.62
2022-09-17T01:44:02.747Z,16.70
2022-09-17T01:46:44.361Z,16.56
2022-09-17T01:49:15.877Z,16.40
2022-09-17T01:51:47.807Z,16.39
2022-09-17T01:54:49.591Z,16.38
2022-09-17T01:57:27.009Z,16.32
2022-09-17T02:00:10.980Z,16.35
2022-09-17T02:02:57.203Z,16.30
2022-09-17T02:05:51.145Z,16.33
2022-09-17T02:08:24.277Z,16.30
2022-09-17T02:11:14.657Z,16.30
2022-09-17T02:13:47.672Z,16.28
2022-09-17T02:16:23.321Z,16.27
2022-09-17T02:18:56.734Z,16.30
2022-09-17T02:21:33.067Z,16.25
2022-09-17T02:24:12.235Z,16.31
2022-09-17T02:26:48.969Z,16.26
2022-09-17T02:29:40.302Z,16.17
2022-09-17T02:32:07.651Z,16.14
2022-09-17T02:34:35.067Z,16.13
2022-09-17T02:37:03.492Z,16.19
2022-09-17T02:39:31.090Z,16.09
2022-09-17T02:42:20.937Z,16.11
2022-09-17T02:45:10.934Z,16.06
2022-09-17T02:47:57.064Z,16.05
2022-09-17T02:50:30.203Z,16.01
2022-09-17T02:53:34.422Z,15.84
2022-09-17T02:56:10.989Z,15.85
2022-09-17T02:58:41.422Z,15.84
2022-09-17T03:01:18.649Z,15.82
2022-09-17T03:03:47.532Z,15.72
2022-09-17T03:06:14.769Z,15.79
2022-09-17T03:08:42.919Z,15.62
2022-09-17T03:11:13.133Z,15.53
2022-09-17T03:13:43.432Z,15.53
2022-09-17T03:16:10.960Z,15.55
2022-09-17T03:18:38.240Z,15.48
2022-09-17T03:21:05.347Z,15.50
2022-09-17T03:23:33.107Z,15.54
2022-09-17T03:26:00.113Z,15.54
2022-09-17T03:28:27.474Z,15.43
2022-09-17T03:30:54.992Z,15.42
2022-09-17T03:33:22.249Z,15.43
2022-09-17T03:35:49.468Z,15.47
2022-09-17T03:38:17.332Z,15.50
2022-09-17T03:40:44.245Z,15.51
2022-09-17T03:43:11.473Z,15.46
2022-09-17T03:45:38.415Z,15.44
2022-09-17T03:48:05.524Z,15.47
2022-09-17T03:50:32.398Z,15.46
2022-09-17T03:52:59.518Z,15.46
2022-09-17T03:55:26.581Z,15.43
2022-09-17T03:57:53.668Z,15.39
2022-09-17T04:00:20.849Z,15.34
2022-09-17T04:02:47.922Z,15.32
2022-09-17T04:05:15.045Z,15.26
2022-09-17T04:07:42.198Z,15.35
2022-09-17T04:10:09.547Z,15.30
2022-09-17T04:12:37.034Z,15.34
2022-09-17T04:15:04.623Z,15.39
2022-09-17T04:17:32.004Z,15.37
2022-09-17T04:19:58.942Z,15.34
2022-09-17T04:22:26.592Z,15.41
2022-09-17T04:24:53.585Z,15.41
2022-09-17T04:27:20.582Z,15.42
2022-09-17T04:29:47.526Z,15.48
2022-09-17T04:32:14.459Z,15.54
2022-09-17T04:34:41.514Z,15.57
2022-09-17T04:37:09.031Z,15.53
2022-09-17T04:39:35.970Z,15.51
2022-09-17T04:42:02.883Z,15.50
2022-09-17T04:44:29.801Z,15.52
2022-09-17T04:46:56.900Z,15.58
2022-09-17T04:49:23.811Z,15.60
2022-09-17T04:51:50.762Z,15.55
2022-09-17T04:54:17.803Z,15.59
2022-09-17T04:56:44.845Z,15.71
2022-09-17T04:59:11.684Z,15.71
2022-09-17T05:01:38.679Z,15.77
2022-09-17T05:04:05.586Z,15.82
2022-09-17T05:06:32.941Z,15.84
2022-09-17T05:09:00.476Z,15.96
2022-09-17T05:11:27.652Z,16.09
2022-09-17T05:13:55.343Z,16.29
2022-09-17T05:16:22.458Z,16.41
2022-09-17T05:18:52.001Z,16.53
2022-09-17T05:21:20.701Z,16.75
2022-09-17T05:23:48.254Z,16.85
2022-09-17T05:26:15.786Z,17.07
2022-09-17T05:28:43.044Z,17.26
2022-09-17T05:31:10.151Z,17.45
2022-09-17T05:33:37.182Z,17.72
2022-09-17T05:36:04.387Z,18.04
2022-09-17T05:38:31.512Z,18.24
2022-09-17T05:40:58.519Z,18.41
2022-09-17T05:43:25.498Z,18.67
2022-09-17T05:45:54.551Z,18.99
2022-09-17T05:48:21.597Z,19.30
2022-09-17T05:50:48.620Z,19.46
2022-09-17T05:53:15.713Z,19.61
2022-09-17T05:55:42.649Z,19.79
2022-09-17T05:58:15.070Z,20.09
2022-09-17T06:00:43.319Z,20.37
2022-09-17T06:03:15.047Z,20.60
2022-09-17T06:05:42.538Z,20.97
2022-09-17T06:08:10.837Z,21.41
2022-09-17T06:10:38.845Z,21.85
2022-09-17T06:13:06.195Z,22.12
2022-09-17T06:15:33.279Z,22.37
2022-09-17T06:18:00.392Z,22.67
2022-09-17T06:20:27.430Z,23.01
2022-09-17T06:22:58.481Z,23.25
2022-09-17T06:25:26.760Z,23.57
2022-09-17T06:27:53.689Z,23.99
2022-09-17T06:30:20.635Z,24.39
2022-09-17T06:32:47.641Z,24.69
2022-09-17T06:35:14.645Z,24.86
2022-09-17T06:37:41.703Z,24.95
2022-09-17T06:40:09.528Z,24.94
2022-09-17T06:42:36.715Z,24.88
2022-09-17T06:45:09.304Z,24.84
2022-09-17T06:47:38.187Z,24.70
2022-09-17T06:50:05.580Z,24.53
2022-09-17T06:52:35.721Z,24.44
2022-09-17T06:55:02.667Z,24.39
2022-09-17T06:57:30.195Z,24.24
2022-09-17T06:59:57.101Z,24.05
2022-09-17T07:02:24.239Z,23.80
2022-09-17T07:04:51.108Z,23.57
2022-09-17T07:07:18.217Z,23.43
2022-09-17T07:09:45.457Z,23.27
2022-09-17T07:12:12.393Z,23.07
2022-09-17T07:14:39.410Z,22.93
2022-09-17T07:17:07.698Z,22.70
2022-09-17T07:19:35.047Z,22.60
2022-09-17T07:22:02.165Z,22.46
2022-09-17T07:24:32.715Z,22.39
2022-09-17T07:27:00.940Z,22.35
2022-09-17T07:29:28.211Z,22.31
2022-09-17T07:31:55.637Z,22.26
2022-09-17T07:34:22.692Z,22.22
2022-09-17T07:36:49.650Z,22.19
2022-09-17T07:39:16.863Z,22.26
2022-09-17T07:41:43.941Z,22.38
2022-09-17T07:44:11.181Z,22.42
2022-09-17T07:46:38.335Z,22.51
2022-09-17T07:49:05.800Z,22.71
2022-09-17T07:51:33.109Z,23.00
2022-09-17T07:54:02.454Z,23.35
2022-09-17T07:56:30.073Z,23.78
2022-09-17T07:58:57.143Z,24.18
2022-09-17T08:01:24.363Z,24.33
2022-09-17T08:03:53.257Z,24.41
2022-09-17T08:06:23.566Z,24.49
2022-09-17T08:08:50.569Z,24.59
2022-09-17T08:14:15.670Z,25.00
2022-09-17T08:16:43.530Z,25.30
2022-09-17T08:19:11.080Z,25.67
2022-09-17T08:21:38.406Z,26.00
2022-09-17T08:24:05.916Z,26.14
2022-09-17T08:26:33.161Z,26.23
2022-09-17T08:29:00.295Z,26.32
2022-09-17T08:31:30.456Z,26.51
2022-09-17T08:33:57.964Z,26.82
2022-09-17T08:36:26.545Z,27.27
2022-09-17T08:38:55.171Z,27.37
2022-09-17T08:41:40.817Z,27.74
2022-09-17T08:44:24.941Z,28.16
2022-09-17T08:47:06.500Z,28.51
2022-09-17T08:49:56.865Z,28.92
2022-09-17T08:52:42.165Z,29.42
2022-09-17T08:55:35.299Z,29.80
2022-09-17T08:58:35.575Z,30.08
2022-09-17T09:01:40.590Z,30.38
2022-09-17T09:04:44.275Z,30.65
2022-09-17T09:07:20.894Z,30.94
2022-09-17T09:10:11.426Z,31.28
2022-09-17T09:12:40.291Z,31.54
2022-09-17T09:15:16.259Z,31.72
2022-09-17T09:17:47.128Z,31.65
2022-09-17T09:20:22.423Z,31.58
2022-09-17T09:22:52.826Z,31.46
2022-09-17T09:25:27.510Z,31.56
2022-09-17T09:28:08.075Z,31.63
2022-09-17T09:31:10.057Z,31.69
2022-09-17T09:33:47.044Z,31.64
2022-09-17T09:36:22.153Z,31.61
2022-09-17T09:39:35.072Z,31.60
2022-09-17T09:42:16.420Z,31.59
2022-09-17T09:44:43.629Z,31.78
2022-09-17T09:47:19.565Z,31.79
2022-09-17T09:49:46.752Z,31.70
2022-09-17T09:52:23.033Z,31.74
2022-09-17T09:54:50.297Z,31.66
2022-09-17T09:57:22.867Z,31.72
2022-09-17T09:59:49.900Z,31.84
2022-09-17T10:02:17.251Z,32.05
2022-09-17T10:04:44.371Z,32.21
2022-09-17T10:07:12.079Z,32.27
2022-09-17T10:09:45.213Z,32.05
2022-09-17T10:12:12.283Z,31.92
2022-09-17T10:14:40.342Z,31.87
2022-09-17T10:17:27.775Z,31.81
2022-09-17T10:20:00.450Z,31.82
2022-09-17T10:22:36.067Z,31.82
2022-09-17T10:25:05.709Z,31.98
2022-09-17T10:27:34.605Z,32.14
2022-09-17T10:30:16.446Z,32.36
2022-09-17T10:32:44.408Z,32.42
2022-09-17T10:35:18.590Z,32.33
2022-09-17T10:37:47.184Z,32.18
2022-09-17T10:40:20.098Z,31.89
2022-09-17T10:42:51.703Z,31.66
2022-09-17T10:45:25.833Z,31.28
2022-09-17T10:47:54.395Z,30.93
2022-09-17T10:50:33.334Z,30.54
2022-09-17T10:53:07.184Z,30.14
2022-09-17T10:55:38.650Z,29.84
2022-09-17T10:58:08.675Z,29.56
2022-09-17T11:00:44.501Z,29.28
2022-09-17T11:03:17.373Z,28.82
2022-09-17T11:06:19.103Z,28.26
2022-09-17T11:09:07.282Z,27.75
2022-09-17T11:11:58.977Z,27.16
2022-09-17T11:15:00.698Z,26.49
2022-09-17T11:17:37.791Z,25.92
2022-09-17T11:20:22.401Z,25.49
2022-09-17T11:23:07.518Z,25.20
2022-09-17T11:25:58.351Z,24.84
2022-09-17T11:29:27.651Z,24.44
2022-09-17T11:32:08.412Z,24.03
2022-09-17T11:34:48.890Z,23.62
2022-09-17T11:37:59.610Z,23.30
2022-09-17T11:40:50.949Z,22.94
2022-09-17T11:43:34.622Z,22.50
2022-09-17T11:46:16.457Z,22.28
2022-09-17T11:49:19.935Z,21.87
2022-09-17T11:51:56.795Z,21.59
2022-09-17T11:54:39.236Z,21.27
2022-09-17T11:57:28.141Z,20.94
2022-09-17T12:00:23.440Z,20.69
2022-09-17T12:03:16.883Z,20.60
2022-09-17T12:05:51.443Z,20.42
2022-09-17T12:08:44.206Z,20.22
2022-09-17T12:11:38.658Z,20.04
2022-09-17T12:14:31.580Z,20.03
2022-09-17T12:17:02.442Z,20.02
2022-09-17T12:19:36.283Z,20.01
2022-09-17T12:22:23.227Z,20.03
2022-09-17T12:24:54.085Z,20.04
2022-09-17T12:27:36.044Z,20.21
2022-09-17T12:30:13.654Z,20.21
2022-09-17T12:32:50.441Z,20.44
2022-09-17T12:36:03.458Z,20.52
2022-09-17T12:38:52.597Z,20.55
2022-09-17T12:41:44.182Z,20.60
2022-09-17T12:44:31.195Z,20.66
2022-09-17T12:47:13.461Z,20.75
2022-09-17T12:49:55.519Z,20.80
2022-09-17T12:52:43.232Z,20.78
2022-09-17T12:55:21.219Z,20.69
2022-09-17T12:58:16.051Z,20.68
2022-09-17T13:01:12.307Z,20.75
2022-09-17T13:03:59.742Z,20.87
2022-09-17T13:06:32.649Z,21.06
2022-09-17T13:09:27.216Z,21.12
2022-09-17T13:12:13.556Z,21.23
2022-09-17T13:15:03.274Z,21.33
2022-09-17T13:18:12.407Z,21.34
2022-09-17T13:21:08.496Z,21.60
2022-09-17T13:23:40.989Z,21.82
2022-09-17T13:26:09.454Z,21.99
2022-09-17T13:28:46.962Z,22.12
2022-09-17T13:31:40.145Z,22.33
2022-09-17T13:34:21.963Z,22.38
2022-09-17T13:36:52.710Z,22.33
2022-09-17T13:39:41.273Z,22.29
2022-09-17T13:42:30.893Z,22.30
2022-09-17T13:45:16.793Z,22.30
2022-09-17T13:47:57.709Z,22.22
2022-09-17T13:50:32.886Z,22.26
2022-09-17T13:53:17.776Z,22.32
2022-09-17T13:55:50.706Z,22.34
2022-09-17T13:58:23.596Z,22.39
2022-09-17T14:01:05.145Z,22.45
2022-09-17T14:03:33.948Z,22.58
2022-09-17T14:06:11.386Z,22.63
2022-09-17T14:08:44.563Z,22.68
2022-09-17T14:11:27.043Z,22.68
2022-09-17T14:14:06.704Z,22.76
2022-09-17T14:16:42.555Z,22.85
2022-09-17T14:19:15.902Z,22.89
2022-09-17T14:21:44.622Z,22.88
2022-09-17T14:24:22.861Z,22.86
2022-09-17T14:26:58.708Z,22.96
2022-09-17T14:29:47.421Z,22.93
2022-09-17T14:32:21.120Z,22.90
2022-09-17T14:34:50.021Z,22.92
2022-09-17T14:37:20.972Z,22.86
2022-09-17T14:39:49.356Z,22.84
2022-09-17T14:42:23.891Z,22.73
2022-09-17T14:45:03.755Z,22.73
2022-09-17T14:47:30.687Z,22.72
2022-09-17T14:50:24.928Z,22.69
2022-09-17T14:52:55.209Z,22.63
2022-09-17T14:55:26.691Z,22.60
2022-09-17T14:57:58.814Z,22.54
2022-09-17T15:00:31.708Z,22.46
2022-09-17T15:03:01.463Z,22.39
2022-09-17T15:05:35.801Z,22.34
2022-09-17T15:08:11.675Z,22.27
2022-09-17T15:10:55.828Z,22.15
2022-09-17T15:13:32.112Z,22.05
2022-09-17T15:16:13.033Z,22.01
2022-09-17T15:19:06.007Z,22.00
2022-09-17T15:21:44.337Z,21.99
2022-09-17T15:24:29.803Z,21.98
2022-09-17T15:27:00.039Z,21.90
2022-09-17T15:29:31.300Z,21.91
2022-09-17T15:31:58.505Z,21.87
2022-09-17T15:34:25.576Z,21.86
2022-09-17T15:37:07.565Z,21.77
2022-09-17T15:39:43.023Z,21.72
2022-09-17T15:42:27.604Z,21.65
2022-09-17T15:45:08.190Z,21.58
2022-09-17T15:47:38.202Z,21.60
2022-09-17T15:50:18.505Z,21.47
2022-09-17T15:55:33.221Z,21.40
2022-09-17T15:58:01.457Z,21.36
2022-09-17T16:00:28.491Z,21.26
2022-09-17T16:02:55.798Z,21.19
2022-09-17T16:05:25.489Z,21.20
2022-09-17T16:07:52.510Z,21.25
2022-09-17T16:10:20.617Z,21.17
2022-09-17T16:12:50.095Z,21.10
2022-09-17T16:15:17.861Z,21.08
2022-09-17T16:17:47.621Z,20.89
2022-09-17T16:20:24.805Z,20.91
2022-09-17T16:22:53.437Z,20.81
2022-09-17T16:25:25.127Z,20.73
2022-09-17T16:27:59.686Z,20.69
2022-09-17T16:30:27.148Z,20.75
2022-09-17T16:32:54.936Z,20.70
2022-09-17T16:35:24.635Z,20.63
2022-09-17T16:37:53.614Z,20.65
2022-09-17T16:40:22.983Z,20.66
2022-09-17T16:42:50.017Z,20.59
2022-09-17T16:45:17.361Z,20.52
2022-09-17T16:47:45.189Z,20.47
2022-09-17T16:50:15.294Z,20.47
2022-09-17T16:52:42.968Z,20.35
2022-09-17T16:55:09.961Z,20.34
2022-09-17T16:57:37.150Z,20.23
2022-09-17T17:00:06.014Z,20.22
2022-09-17T17:02:33.333Z,20.22
2022-09-17T17:05:00.509Z,20.15
2022-09-17T17:07:27.644Z,20.20
2022-09-17T17:09:54.936Z,20.17
2022-09-17T17:12:22.127Z,19.96
2022-09-17T17:14:50.339Z,19.96
2022-09-17T17:17:18.820Z,19.87
2022-09-17T17:19:46.903Z,19.86
2022-09-17T17:22:14.844Z,19.91
2022-09-17T17:24:42.475Z,19.88
2022-09-17T17:27:09.873Z,19.93
2022-09-17T17:29:41.380Z,19.75
2022-09-17T17:32:08.605Z,19.73
2022-09-17T17:34:36.138Z,19.68
2022-09-17T17:37:03.757Z,19.75
2022-09-17T17:39:31.274Z,19.74
2022-09-17T17:41:58.280Z,19.69
2022-09-17T17:44:25.390Z,19.65
2022-09-17T17:46:52.412Z,19.65
2022-09-17T17:49:19.560Z,19.57
2022-09-17T17:51:49.038Z,19.52
2022-09-17T17:54:16.127Z,19.51
2022-09-17T17:56:43.610Z,19.49
2022-09-17T17:59:10.639Z,19.51
2022-09-17T18:01:38.619Z,19.39
2022-09-17T18:04:10.077Z,19.41
2022-09-17T18:06:37.342Z,19.38
2022-09-17T18:09:05.927Z,19.27
2022-09-17T18:11:36.183Z,19.17
2022-09-17T18:14:16.808Z,19.08
2022-09-17T18:16:50.305Z,19.02
2022-09-17T18:19:17.959Z,19.01
2022-09-17T18:21:45.473Z,19.02
2022-09-17T18:24:13.477Z,18.89
2022-09-17T18:26:45.070Z,18.74
2022-09-17T18:29:13.995Z,18.67
2022-09-17T18:31:41.275Z,18.61
2022-09-17T18:34:12.649Z,18.55
2022-09-17T18:36:41.184Z,18.59
2022-09-17T18:39:56.487Z,18.59
2022-09-17T18:42:03.875Z,18.54
2022-09-17T18:44:30.778Z,18.50
2022-09-17T18:46:58.123Z,18.56
2022-09-17T18:49:25.210Z,18.55
2022-09-17T18:51:52.162Z,18.62
2022-09-17T18:54:19.221Z,18.54
2022-09-17T18:56:46.173Z,18.54
2022-09-17T18:59:13.814Z,18.60
2022-09-17T19:01:40.813Z,18.66
2022-09-17T19:04:08.613Z,18.66
2022-09-17T19:06:35.849Z,18.66
2022-09-17T19:09:04.489Z,18.63
2022-09-17T19:11:31.504Z,18.68
2022-09-17T19:13:59.012Z,18.76
2022-09-17T19:16:26.159Z,18.74
2022-09-17T19:18:53.422Z,18.73
2022-09-17T19:21:21.919Z,18.76
2022-09-17T19:23:51.386Z,18.79
2022-09-17T19:26:23.721Z,18.86
2022-09-17T19:28:55.710Z,18.95
2022-09-17T19:31:22.793Z,18.95
2022-09-17T19:33:51.870Z,18.91
2022-09-17T19:36:20.188Z,18.94
2022-09-17T19:38:48.246Z,18.89
2022-09-17T19:41:20.250Z,18.84
2022-09-17T19:43:48.154Z,18.79
2022-09-17T19:46:21.296Z,18.87
2022-09-17T19:48:57.758Z,18.83
2022-09-17T19:51:28.911Z,18.83
2022-09-17T19:53:57.694Z,18.72
2022-09-17T19:56:28.264Z,18.67
2022-09-17T19:58:57.225Z,18.62
2022-09-17T20:01:27.082Z,18.56
2022-09-17T20:03:55.466Z,18.60
2022-09-17T20:06:24.374Z,18.59
2022-09-17T20:08:55.451Z,18.49
2022-09-17T20:11:25.429Z,18.44
2022-09-17T20:14:10.799Z,18.43
2022-09-17T20:16:41.314Z,18.38
2022-09-17T20:19:21.840Z,18.39
2022-09-17T20:21:55.510Z,18.42
2022-09-17T20:24:24.317Z,18.30
2022-09-17T20:26:52.551Z,18.21
2022-09-17T20:29:20.519Z,18.22
2022-09-17T20:31:48.459Z,18.22
2022-09-17T20:34:17.142Z,18.12
2022-09-17T20:37:06.522Z,18.13
2022-09-17T20:39:39.502Z,18.13
2022-09-17T20:42:06.963Z,18.10
2022-09-17T20:44:34.087Z,18.12
2022-09-17T20:47:02.211Z,18.07
2022-09-17T20:49:30.443Z,18.07
2022-09-17T20:51:57.947Z,18.01
2022-09-17T20:54:25.407Z,17.94
2022-09-17T20:56:52.933Z,17.87
2022-09-17T20:59:25.191Z,17.92
2022-09-17T21:01:53.927Z,17.81
2022-09-17T21:04:22.207Z,17.76
2022-09-17T21:06:53.782Z,17.74
2022-09-17T21:09:21.021Z,17.60
2022-09-17T21:11:49.613Z,17.63
2022-09-17T21:14:18.525Z,17.48
2022-09-17T21:16:46.951Z,17.36
2022-09-17T21:19:16.481Z,17.30
2022-09-17T21:21:48.546Z,17.26
2022-09-17T21:24:15.961Z,17.33
2022-09-17T21:26:46.333Z,17.31
2022-09-17T21:29:13.711Z,17.27
2022-09-17T21:31:41.542Z,17.26
2022-09-17T21:34:12.666Z,17.20
2022-09-17T21:36:42.507Z,17.19
2022-09-17T21:39:19.863Z,17.20
2022-09-17T21:41:48.452Z,17.16
2022-09-17T21:44:16.535Z,17.11
2022-09-17T21:46:44.280Z,17.07
2022-09-17T21:49:11.563Z,17.04
2022-09-17T21:51:41.282Z,16.95
2022-09-17T21:54:11.598Z,16.94
2022-09-17T21:56:39.426Z,16.99
2022-09-17T21:59:09.107Z,16.95
2022-09-17T22:01:42.117Z,16.95
2022-09-17T22:04:17.667Z,16.86
2022-09-17T22:06:47.248Z,16.89
2022-09-17T22:09:25.818Z,16.83
2022-09-17T22:11:53.720Z,16.74
2022-09-17T22:14:22.221Z,16.77
2022-09-17T22:16:53.070Z,16.61
2022-09-17T22:19:21.136Z,16.53
2022-09-17T22:21:51.571Z,16.54
2022-09-17T22:24:20.162Z,16.57
2022-09-17T22:26:56.565Z,16.48
2022-09-17T22:29:26.296Z,16.47
2022-09-17T22:31:53.454Z,16.49
2022-09-17T22:34:22.166Z,16.43
2022-09-17T22:36:49.759Z,16.48
2022-09-17T22:39:19.364Z,16.38
2022-09-17T22:41:46.683Z,16.36
2022-09-17T22:44:17.862Z,16.29
2022-09-17T22:46:47.217Z,16.29
2022-09-17T22:49:14.999Z,16.28
2022-09-17T22:51:43.321Z,16.20
2022-09-17T22:54:15.279Z,16.09
2022-09-17T22:56:43.306Z,16.07
2022-09-17T22:59:12.035Z,16.07
2022-09-17T23:01:40.256Z,16.06
2022-09-17T23:04:07.479Z,16.08
2022-09-17T23:06:38.508Z,16.09
2022-09-17T23:09:06.414Z,15.99
2022-09-17T23:11:38.841Z,15.99
2022-09-17T23:14:09.799Z,15.87
2022-09-17T23:16:42.693Z,15.87
2022-09-17T23:19:10.801Z,15.81
2022-09-17T23:21:39.054Z,15.86
2022-09-17T23:24:06.828Z,15.91
2022-09-17T23:26:33.877Z,15.79
2022-09-17T23:29:05.595Z,15.73
2022-09-17T23:31:35.460Z,15.66
2022-09-17T23:34:03.121Z,15.64
2022-09-17T23:36:33.179Z,15.66
2022-09-17T23:39:00.372Z,15.60
2022-09-17T23:41:33.067Z,15.65
2022-09-17T23:44:02.375Z,15.64
2022-09-17T23:46:32.868Z,15.59
2022-09-17T23:49:00.330Z,15.56
2022-09-17T23:51:31.065Z,15.52
2022-09-17T23:53:58.739Z,15.50
2022-09-17T23:56:27.664Z,15.50
2022-09-17T23:58:55.977Z,15.50
